createdAt,value
2018-07-03T00:01:56.139Z,21.55
2018-07-03T00:04:26.088Z,21.53
2018-07-03T00:06:56.244Z,21.57
2018-07-03T00:09:26.565Z,21.73
2018-07-03T00:11:58.787Z,21.86
2018-07-03T00:14:29.029Z,21.73
2018-07-03T00:17:04.168Z,21.62
2018-07-03T00:19:34.119Z,21.62
2018-07-03T00:22:04.213Z,21.62
2018-07-03T00:24:34.148Z,21.75
2018-07-03T00:27:04.077Z,21.62
2018-07-03T00:29:34.472Z,21.59
2018-07-03T00:32:04.479Z,21.63
2018-07-03T00:34:34.519Z,21.62
2018-07-03T00:37:04.485Z,21.56
2018-07-03T00:39:34.548Z,21.54
2018-07-03T00:42:04.446Z,21.54
2018-07-03T00:44:34.545Z,21.45
2018-07-03T00:47:04.613Z,21.45
2018-07-03T00:49:34.517Z,21.45
2018-07-03T00:52:04.555Z,21.39
2018-07-03T00:54:34.684Z,21.40
2018-07-03T00:57:04.611Z,21.33
2018-07-03T00:59:34.901Z,21.28
2018-07-03T01:02:05.080Z,21.25
2018-07-03T01:04:35.049Z,21.20
2018-07-03T01:07:05.404Z,21.32
2018-07-03T01:09:35.381Z,21.23
2018-07-03T01:12:05.880Z,21.21
2018-07-03T01:14:35.812Z,21.20
2018-07-03T01:17:05.868Z,21.17
2018-07-03T01:19:36.103Z,21.11
2018-07-03T01:22:06.105Z,21.04
2018-07-03T01:24:36.044Z,21.02
2018-07-03T01:27:06.158Z,21.07
2018-07-03T01:29:36.052Z,21.08
2018-07-03T01:32:05.923Z,21.02
2018-07-03T01:34:35.812Z,20.98
2018-07-03T01:37:05.952Z,20.95
2018-07-03T01:39:35.903Z,20.94
2018-07-03T01:42:06.164Z,20.89
2018-07-03T01:44:36.092Z,20.93
2018-07-03T01:47:06.072Z,20.91
2018-07-03T01:49:36.149Z,20.88
2018-07-03T01:52:06.236Z,20.88
2018-07-03T01:54:36.282Z,20.89
2018-07-03T01:57:06.263Z,20.89
2018-07-03T01:59:36.765Z,20.88
2018-07-03T02:02:06.708Z,20.91
2018-07-03T02:04:36.686Z,20.96
2018-07-03T02:07:07.110Z,20.89
2018-07-03T02:09:37.639Z,20.90
2018-07-03T02:12:07.619Z,20.88
2018-07-03T02:14:37.546Z,20.87
2018-07-03T02:17:07.751Z,20.83
2018-07-03T02:19:37.703Z,20.81
2018-07-03T02:22:07.688Z,20.76
2018-07-03T02:24:37.671Z,20.74
2018-07-03T02:27:07.593Z,20.72
2018-07-03T02:29:38.617Z,20.74
2018-07-03T02:32:08.596Z,20.70
2018-07-03T02:34:38.634Z,20.71
2018-07-03T02:37:08.524Z,20.70
2018-07-03T02:39:38.936Z,20.72
2018-07-03T02:42:08.878Z,20.67
2018-07-03T02:44:38.892Z,20.66
2018-07-03T02:47:08.828Z,20.65
2018-07-03T02:49:38.727Z,20.64
2018-07-03T02:52:08.642Z,20.59
2018-07-03T02:54:38.568Z,20.59
2018-07-03T02:57:08.527Z,20.55
2018-07-03T02:59:39.187Z,20.53
2018-07-03T03:02:09.511Z,20.52
2018-07-03T03:04:39.589Z,20.62
2018-07-03T03:07:09.605Z,20.60
2018-07-03T03:09:39.543Z,20.58
2018-07-03T03:12:09.428Z,20.57
2018-07-03T03:14:39.876Z,20.75
2018-07-03T03:17:09.919Z,20.70
2018-07-03T03:19:40.080Z,20.73
2018-07-03T03:22:10.042Z,20.82
2018-07-03T03:24:40.131Z,20.93
2018-07-03T03:27:10.029Z,20.99
2018-07-03T03:29:39.981Z,21.12
2018-07-03T03:32:09.897Z,21.23
2018-07-03T03:34:40.132Z,21.27
2018-07-03T03:37:10.250Z,21.39
2018-07-03T03:39:40.293Z,21.49
2018-07-03T03:42:10.488Z,21.65
2018-07-03T03:44:40.528Z,21.79
2018-07-03T03:47:10.569Z,21.93
2018-07-03T03:49:40.450Z,22.07
2018-07-03T03:52:11.344Z,22.26
2018-07-03T03:54:41.590Z,22.33
2018-07-03T03:57:11.493Z,22.35
2018-07-03T03:59:41.723Z,22.29
2018-07-03T04:02:11.794Z,23.07
2018-07-03T04:04:42.028Z,22.87
2018-07-03T04:07:12.032Z,22.23
2018-07-03T04:09:42.059Z,22.22
2018-07-03T04:12:11.936Z,22.47
2018-07-03T04:14:44.860Z,22.60
2018-07-03T04:17:14.785Z,22.41
2018-07-03T04:19:45.207Z,22.36
2018-07-03T04:22:15.217Z,22.25
2018-07-03T04:24:48.205Z,21.93
2018-07-03T04:27:18.184Z,21.78
2018-07-03T04:29:48.320Z,21.66
2018-07-03T04:32:18.200Z,21.65
2018-07-03T04:34:48.458Z,21.74
2018-07-03T04:37:18.395Z,22.06
2018-07-03T04:39:48.325Z,22.06
2018-07-03T04:42:18.584Z,21.97
2018-07-03T04:44:48.558Z,21.81
2018-07-03T04:47:18.433Z,21.62
2018-07-03T04:49:48.304Z,21.77
2018-07-03T04:52:18.273Z,21.75
2018-07-03T04:54:48.493Z,21.82
2018-07-03T04:57:18.451Z,21.94
2018-07-03T04:59:48.665Z,22.08
2018-07-03T05:02:18.685Z,22.24
2018-07-03T05:04:48.700Z,22.49
2018-07-03T05:07:18.652Z,22.85
2018-07-03T05:09:48.530Z,22.52
2018-07-03T05:12:18.458Z,22.26
2018-07-03T05:14:48.405Z,22.47
2018-07-03T05:17:18.485Z,22.70
2018-07-03T05:19:48.588Z,22.91
2018-07-03T05:22:18.558Z,22.84
2018-07-03T05:24:48.951Z,23.71
2018-07-03T05:27:18.905Z,24.33
2018-07-03T05:29:50.156Z,24.22
2018-07-03T05:32:20.032Z,25.22
2018-07-03T05:34:49.978Z,24.37
2018-07-03T05:37:19.973Z,25.06
2018-07-03T05:39:50.062Z,24.80
2018-07-03T05:42:20.137Z,24.58
2018-07-03T05:44:50.192Z,24.33
2018-07-03T05:47:20.154Z,24.41
2018-07-03T05:49:50.181Z,24.94
2018-07-03T05:52:21.206Z,24.53
2018-07-03T05:54:51.115Z,24.48
2018-07-03T05:57:21.424Z,24.66
2018-07-03T05:59:51.405Z,24.48
2018-07-03T06:02:21.477Z,25.25
2018-07-03T06:04:51.467Z,24.73
2018-07-03T06:07:21.704Z,24.97
2018-07-03T06:09:51.716Z,25.27
2018-07-03T06:12:21.821Z,25.93
2018-07-03T06:14:52.093Z,25.69
2018-07-03T06:17:22.743Z,25.27
2018-07-03T06:19:53.081Z,25.91
2018-07-03T06:22:23.181Z,26.26
2018-07-03T06:24:53.127Z,26.41
2018-07-03T06:27:24.080Z,25.32
2018-07-03T06:29:54.024Z,25.88
2018-07-03T06:32:24.001Z,25.95
2018-07-03T06:34:53.920Z,26.27
2018-07-03T06:37:24.013Z,26.15
2018-07-03T06:39:53.897Z,26.31
2018-07-03T06:42:24.082Z,26.94
2018-07-03T06:44:53.807Z,26.73
2018-07-03T06:47:23.902Z,25.94
2018-07-03T06:49:54.139Z,25.61
2018-07-03T06:52:24.211Z,26.40
2018-07-03T06:54:54.377Z,26.10
2018-07-03T06:57:24.392Z,25.88
2018-07-03T06:59:54.378Z,25.62
2018-07-03T07:02:24.529Z,25.10
2018-07-03T07:04:54.456Z,24.63
2018-07-03T07:07:24.326Z,24.35
2018-07-03T07:09:54.278Z,24.18
2018-07-03T07:12:24.356Z,24.00
2018-07-03T07:14:54.308Z,24.23
2018-07-03T07:17:24.377Z,24.74
2018-07-03T07:19:54.295Z,24.75
2018-07-03T07:22:24.276Z,25.06
2018-07-03T07:24:54.537Z,24.53
2018-07-03T07:27:24.493Z,24.62
2018-07-03T07:29:54.422Z,24.52
2018-07-03T07:32:24.442Z,24.47
2018-07-03T07:34:54.444Z,24.36
2018-07-03T07:37:24.517Z,24.44
2018-07-03T07:39:54.419Z,24.53
2018-07-03T07:42:24.487Z,24.91
2018-07-03T07:44:54.484Z,24.92
2018-07-03T07:47:24.396Z,25.26
2018-07-03T07:49:54.361Z,25.54
2018-07-03T07:52:24.318Z,25.88
2018-07-03T07:54:54.560Z,25.81
2018-07-03T07:57:24.737Z,25.56
2018-07-03T07:59:54.924Z,26.43
2018-07-03T08:02:24.917Z,26.04
2018-07-03T08:04:55.121Z,26.72
2018-07-03T08:07:25.067Z,26.06
2018-07-03T08:09:55.247Z,25.99
2018-07-03T08:12:25.129Z,25.74
2018-07-03T08:14:55.211Z,26.00
2018-07-03T08:17:25.201Z,26.11
2018-07-03T08:19:55.155Z,26.36
2018-07-03T08:22:25.533Z,26.62
2018-07-03T08:24:55.391Z,26.74
2018-07-03T08:27:25.636Z,26.57
2018-07-03T08:29:55.656Z,26.51
2018-07-03T08:32:25.938Z,26.44
2018-07-03T08:34:56.012Z,26.41
2018-07-03T08:37:25.916Z,26.41
2018-07-03T08:39:55.932Z,26.59
2018-07-03T08:42:26.008Z,26.53
2018-07-03T08:44:56.033Z,26.54
2018-07-03T08:47:26.417Z,26.93
2018-07-03T08:49:56.367Z,27.14
2018-07-03T08:52:26.751Z,27.20
2018-07-03T08:54:56.747Z,27.16
2018-07-03T08:57:26.753Z,27.43
2018-07-03T08:59:56.846Z,27.44
2018-07-03T09:02:27.208Z,27.31
2018-07-03T09:04:58.097Z,27.16
2018-07-03T09:07:28.324Z,27.48
2018-07-03T09:09:58.457Z,27.82
2018-07-03T09:12:28.403Z,27.96
2018-07-03T09:14:58.525Z,28.25
2018-07-03T09:17:29.599Z,28.27
2018-07-03T09:20:00.839Z,28.09
2018-07-03T09:22:31.563Z,27.91
2018-07-03T09:25:01.706Z,28.14
2018-07-03T09:27:32.701Z,28.38
2018-07-03T09:30:02.627Z,28.58
2018-07-03T09:32:32.781Z,28.58
2018-07-03T09:35:02.999Z,28.78
2018-07-03T09:37:32.944Z,29.24
2018-07-03T09:40:02.802Z,29.30
2018-07-03T09:42:32.838Z,29.33
2018-07-03T09:45:02.847Z,29.67
2018-07-03T09:47:32.897Z,29.46
2018-07-03T09:50:02.924Z,29.12
2018-07-03T09:52:32.963Z,29.07
2018-07-03T09:55:03.003Z,29.07
2018-07-03T09:57:33.015Z,29.52
2018-07-03T10:00:03.170Z,29.74
2018-07-03T10:02:33.249Z,29.42
2018-07-03T10:05:03.320Z,29.41
2018-07-03T10:07:33.339Z,29.74
2018-07-03T10:10:03.364Z,30.09
2018-07-03T10:12:33.330Z,31.13
2018-07-03T10:15:03.598Z,31.29
2018-07-03T10:17:34.031Z,32.02
2018-07-03T10:20:04.147Z,32.54
2018-07-03T10:22:34.032Z,32.51
2018-07-03T10:25:04.608Z,32.41
2018-07-03T10:27:34.628Z,32.00
2018-07-03T10:30:05.548Z,32.48
2018-07-03T10:32:35.537Z,32.98
2018-07-03T10:35:06.344Z,32.78
2018-07-03T10:37:36.241Z,32.34
2018-07-03T10:40:06.797Z,32.77
2018-07-03T10:42:36.818Z,33.04
2018-07-03T10:45:06.830Z,32.24
2018-07-03T10:47:36.771Z,32.90
2018-07-03T10:50:07.190Z,33.10
2018-07-03T10:52:37.201Z,33.06
2018-07-03T10:55:07.292Z,33.00
2018-07-03T10:57:37.175Z,33.26
2018-07-03T11:00:08.394Z,32.79
2018-07-03T11:02:38.560Z,33.14
2018-07-03T11:05:08.540Z,32.53
2018-07-03T11:07:38.487Z,31.86
2018-07-03T11:10:08.912Z,32.53
2018-07-03T11:12:38.959Z,33.30
2018-07-03T11:15:08.949Z,32.02
2018-07-03T11:17:39.711Z,32.86
2018-07-03T11:20:09.906Z,32.80
2018-07-03T11:22:39.928Z,33.63
2018-07-03T11:25:09.879Z,33.46
2018-07-03T11:27:39.913Z,32.62
2018-07-03T11:30:10.209Z,32.95
2018-07-03T11:32:40.413Z,32.71
2018-07-03T11:35:10.639Z,33.15
2018-07-03T11:37:40.702Z,33.30
2018-07-03T11:40:10.651Z,32.58
2018-07-03T11:42:41.059Z,32.31
2018-07-03T11:45:11.176Z,31.88
2018-07-03T11:47:41.121Z,31.38
2018-07-03T11:50:11.050Z,31.26
2018-07-03T11:52:41.125Z,31.26
2018-07-03T11:55:11.191Z,31.82
2018-07-03T11:57:41.385Z,31.48
2018-07-03T12:00:12.060Z,31.80
2018-07-03T12:02:42.120Z,31.21
2018-07-03T12:05:12.921Z,31.34
2018-07-03T12:07:43.185Z,31.03
2018-07-03T12:10:13.232Z,31.63
2018-07-03T12:12:43.313Z,31.57
2018-07-03T12:15:13.425Z,31.84
2018-07-03T12:17:43.772Z,31.95
2018-07-03T12:20:13.780Z,31.58
2018-07-03T12:22:43.936Z,31.55
2018-07-03T12:25:14.425Z,32.18
2018-07-03T12:27:44.335Z,32.19
2018-07-03T12:30:14.440Z,32.39
2018-07-03T12:32:44.839Z,31.69
2018-07-03T12:35:14.764Z,31.57
2018-07-03T12:37:44.706Z,31.23
2018-07-03T12:40:14.717Z,31.33
2018-07-03T12:42:45.089Z,31.12
2018-07-03T12:45:15.148Z,31.92
2018-07-03T12:47:45.072Z,31.88
2018-07-03T12:50:15.328Z,32.22
2018-07-03T12:52:45.211Z,31.29
2018-07-03T12:55:15.350Z,31.41
2018-07-03T12:57:45.253Z,31.56
2018-07-03T13:00:15.491Z,31.74
2018-07-03T13:02:46.109Z,32.06
2018-07-03T13:05:16.433Z,32.03
2018-07-03T13:07:47.985Z,33.10
2018-07-03T13:10:18.673Z,32.42
2018-07-03T13:12:49.085Z,33.69
2018-07-03T13:15:19.178Z,34.02
2018-07-03T13:17:49.333Z,35.23
2018-07-03T13:20:19.421Z,34.82
2018-07-03T13:22:49.324Z,36.04
2018-07-03T13:25:19.617Z,35.41
2018-07-03T13:27:49.468Z,35.74
2018-07-03T13:30:20.060Z,36.19
2018-07-03T13:32:50.740Z,36.00
2018-07-03T13:35:21.484Z,35.51
2018-07-03T13:37:51.403Z,36.52
2018-07-03T13:40:21.763Z,36.61
2018-07-03T13:42:51.841Z,37.84
2018-07-03T13:45:21.736Z,37.14
2018-07-03T13:47:51.986Z,37.36
2018-07-03T13:50:21.969Z,36.62
2018-07-03T13:52:51.856Z,35.43
2018-07-03T13:55:21.757Z,37.07
2018-07-03T13:57:52.048Z,37.01
2018-07-03T14:00:22.985Z,36.56
2018-07-03T14:02:52.992Z,37.17
2018-07-03T14:05:23.119Z,37.39
2018-07-03T14:07:53.050Z,38.25
2018-07-03T14:10:22.989Z,37.28
2018-07-03T14:12:52.915Z,37.85
2018-07-03T14:15:23.264Z,38.12
2018-07-03T14:17:53.641Z,37.91
2018-07-03T14:20:24.064Z,37.39
2018-07-03T14:22:54.113Z,37.10
2018-07-03T14:25:24.651Z,37.61
2018-07-03T14:27:54.560Z,36.37
2018-07-03T14:30:24.899Z,37.61
2018-07-03T14:32:54.872Z,37.47
2018-07-03T14:35:25.193Z,37.75
2018-07-03T14:37:55.663Z,36.88
2018-07-03T14:40:25.603Z,36.45
2018-07-03T14:42:55.593Z,38.13
2018-07-03T14:45:25.685Z,37.96
2018-07-03T14:47:55.645Z,36.55
2018-07-03T14:50:25.588Z,37.94
2018-07-03T14:52:55.926Z,37.48
2018-07-03T14:55:26.237Z,37.98
2018-07-03T14:57:57.006Z,38.27
2018-07-03T15:00:27.433Z,38.95
2018-07-03T15:02:58.191Z,38.96
2018-07-03T15:05:29.033Z,37.42
2018-07-03T15:07:59.081Z,38.88
2018-07-03T15:10:29.076Z,38.83
2018-07-03T15:12:59.261Z,40.03
2018-07-03T15:15:29.054Z,39.53
2018-07-03T15:17:59.447Z,38.75
2018-07-03T15:20:29.424Z,39.58
2018-07-03T15:22:59.637Z,40.14
2018-07-03T15:25:29.681Z,38.91
2018-07-03T15:27:59.633Z,38.19
2018-07-03T15:30:29.539Z,38.91
2018-07-03T15:32:59.511Z,39.01
2018-07-03T15:35:29.416Z,37.45
2018-07-03T15:38:00.139Z,35.85
2018-07-03T15:40:30.133Z,35.33
2018-07-03T15:43:00.133Z,33.94
2018-07-03T15:45:30.243Z,32.67
2018-07-03T15:48:00.204Z,32.54
2018-07-03T15:50:30.195Z,31.60
2018-07-03T15:53:00.100Z,29.95
2018-07-03T15:55:30.001Z,30.06
2018-07-03T15:58:00.070Z,29.56
2018-07-03T16:00:31.070Z,29.48
2018-07-03T16:03:12.045Z,29.87
2018-07-03T16:07:54.859Z,30.16
2018-07-03T16:10:25.025Z,29.49
2018-07-03T16:12:55.203Z,29.63
2018-07-03T16:15:25.368Z,30.01
2018-07-03T16:17:55.316Z,30.27
2018-07-03T16:20:30.535Z,30.63
2018-07-03T16:23:00.551Z,30.66
2018-07-03T16:25:30.676Z,30.37
2018-07-03T16:28:00.848Z,29.92
2018-07-03T16:30:31.494Z,30.10
2018-07-03T16:33:01.331Z,29.77
2018-07-03T16:35:31.606Z,29.37
2018-07-03T16:38:01.476Z,28.88
2018-07-03T16:40:31.869Z,28.56
2018-07-03T16:43:01.881Z,28.49
2018-07-03T16:45:32.094Z,28.55
2018-07-03T16:48:02.144Z,28.44
2018-07-03T16:50:32.188Z,28.83
2018-07-03T16:53:02.180Z,28.44
2018-07-03T16:55:32.512Z,28.46
2018-07-03T16:58:02.539Z,28.08
2018-07-03T17:00:33.046Z,28.12
2018-07-03T17:03:03.718Z,28.35
2018-07-03T17:05:34.045Z,29.45
2018-07-03T17:08:04.195Z,30.00
2018-07-03T17:10:34.227Z,30.57
2018-07-03T17:13:04.376Z,30.00
2018-07-03T17:15:34.288Z,30.07
2018-07-03T17:18:04.420Z,30.08
2018-07-03T17:20:34.792Z,30.13
2018-07-03T17:23:04.993Z,29.65
2018-07-03T17:25:35.057Z,29.52
2018-07-03T17:28:05.058Z,28.72
2018-07-03T17:30:35.177Z,28.41
2018-07-03T17:33:05.206Z,28.30
2018-07-03T17:35:35.205Z,28.52
2018-07-03T17:38:05.395Z,27.19
2018-07-03T17:40:46.458Z,27.48
2018-07-03T17:44:24.024Z,27.01
2018-07-03T17:46:53.728Z,26.83
2018-07-03T17:49:23.639Z,26.79
2018-07-03T17:51:53.641Z,26.48
2018-07-03T17:54:23.662Z,26.31
2018-07-03T17:56:53.637Z,26.36
2018-07-03T17:59:24.416Z,26.22
2018-07-03T18:01:54.378Z,26.27
2018-07-03T18:04:24.427Z,25.97
2018-07-03T18:06:54.355Z,25.96
2018-07-03T18:09:24.294Z,26.11
2018-07-03T18:11:54.523Z,25.95
2018-07-03T18:14:24.504Z,26.13
2018-07-03T18:16:54.398Z,25.90
2018-07-03T18:19:29.569Z,25.89
2018-07-03T18:21:59.844Z,25.86
2018-07-03T18:24:30.226Z,25.95
2018-07-03T18:27:00.589Z,25.76
2018-07-03T18:29:30.575Z,25.56
2018-07-03T18:32:00.622Z,25.80
2018-07-03T18:34:30.849Z,25.81
2018-07-03T18:37:01.352Z,25.73
2018-07-03T18:39:31.920Z,25.76
2018-07-03T18:42:01.979Z,25.88
2018-07-03T18:44:32.119Z,25.43
2018-07-03T18:47:02.449Z,25.45
2018-07-03T18:49:32.345Z,25.36
2018-07-03T18:52:02.806Z,25.24
2018-07-03T18:54:32.720Z,25.20
2018-07-03T18:57:02.699Z,25.32
2018-07-03T18:59:32.749Z,25.38
2018-07-03T19:02:02.819Z,25.30
2018-07-03T19:04:32.796Z,25.41
2018-07-03T19:07:02.764Z,25.43
2018-07-03T19:09:32.782Z,25.36
2018-07-03T19:12:02.804Z,25.23
2018-07-03T19:14:32.964Z,25.09
2018-07-03T19:17:03.599Z,25.29
2018-07-03T19:19:33.812Z,25.17
2018-07-03T19:22:04.231Z,25.05
2018-07-03T19:24:34.187Z,25.05
2018-07-03T19:27:04.753Z,25.25
2018-07-03T19:29:34.663Z,25.03
2018-07-03T19:32:04.734Z,25.04
2018-07-03T19:34:34.605Z,25.15
2018-07-03T19:37:04.691Z,25.26
2018-07-03T19:39:34.594Z,25.07
2018-07-03T19:42:05.548Z,25.19
2018-07-03T19:44:35.465Z,25.12
2018-07-03T19:47:05.890Z,25.22
2018-07-03T19:49:35.848Z,25.22
2018-07-03T19:52:06.209Z,25.31
2018-07-03T19:54:36.299Z,25.09
2018-07-03T19:57:06.552Z,25.32
2018-07-03T19:59:36.492Z,25.04
2018-07-03T20:02:06.547Z,25.21
2018-07-03T20:04:36.834Z,25.08
2018-07-03T20:07:07.102Z,25.14
2018-07-03T20:09:36.967Z,25.17
2018-07-03T20:12:06.888Z,25.21
2018-07-03T20:14:36.987Z,25.17
2018-07-03T20:17:06.913Z,25.24
2018-07-03T20:19:37.199Z,25.04
2018-07-03T20:22:07.069Z,24.80
2018-07-03T20:24:37.017Z,24.84
2018-07-03T20:27:06.928Z,25.23
2018-07-03T20:29:37.249Z,25.05
2018-07-03T20:32:07.635Z,24.98
2018-07-03T20:34:37.588Z,25.13
2018-07-03T20:37:08.315Z,25.18
2018-07-03T20:39:38.261Z,25.21
2018-07-03T20:42:09.061Z,25.33
2018-07-03T20:44:39.207Z,24.88
2018-07-03T20:47:09.384Z,24.99
2018-07-03T20:49:39.350Z,24.84
2018-07-03T20:52:09.884Z,24.67
2018-07-03T20:54:40.540Z,24.60
2018-07-03T20:57:10.506Z,24.63
2018-07-03T20:59:41.922Z,24.65
2018-07-03T21:02:12.265Z,24.69
2018-07-03T21:04:42.315Z,24.50
2018-07-03T21:07:12.278Z,24.56
2018-07-03T21:09:42.367Z,24.57
2018-07-03T21:12:12.393Z,24.39
2018-07-03T21:14:42.340Z,24.31
2018-07-03T21:17:12.618Z,24.58
2018-07-03T21:19:42.602Z,24.40
2018-07-03T21:22:12.619Z,24.52
2018-07-03T21:24:42.816Z,24.44
2018-07-03T21:27:13.004Z,24.32
2018-07-03T21:29:43.124Z,24.47
2018-07-03T21:32:13.537Z,24.27
2018-07-03T21:34:43.741Z,24.41
2018-07-03T21:37:14.137Z,24.44
2018-07-03T21:39:44.361Z,24.47
2018-07-03T21:42:14.557Z,24.42
2018-07-03T21:44:44.853Z,24.43
2018-07-03T21:47:14.973Z,24.37
2018-07-03T21:49:44.819Z,24.33
2018-07-03T21:52:14.880Z,24.25
2018-07-03T21:54:44.752Z,24.12
2018-07-03T21:57:15.143Z,24.31
2018-07-03T21:59:45.597Z,24.21
2018-07-03T22:02:16.119Z,24.42
2018-07-03T22:04:46.776Z,24.50
2018-07-03T22:07:17.011Z,24.47
2018-07-03T22:09:47.601Z,24.37
2018-07-03T22:12:17.572Z,24.27
2018-07-03T22:14:48.940Z,24.40
2018-07-03T22:17:18.898Z,24.31
2018-07-03T22:19:48.951Z,24.16
2018-07-03T22:22:19.217Z,24.48
2018-07-03T22:24:49.686Z,24.40
2018-07-03T22:27:19.952Z,24.47
2018-07-03T22:29:50.339Z,24.69
2018-07-03T22:32:20.528Z,24.72
2018-07-03T22:34:50.791Z,24.52
2018-07-03T22:37:21.034Z,24.49
2018-07-03T22:39:51.369Z,24.22
2018-07-03T22:42:21.295Z,24.23
2018-07-03T22:44:51.267Z,24.35
2018-07-03T22:47:22.561Z,24.31
2018-07-03T22:49:52.441Z,24.50
2018-07-03T22:52:22.532Z,24.79
2018-07-03T22:54:52.562Z,24.67
2018-07-03T22:57:23.072Z,24.40
2018-07-03T22:59:53.377Z,24.63
2018-07-03T23:02:23.663Z,24.60
2018-07-03T23:04:54.033Z,24.40
2018-07-03T23:07:24.351Z,24.33
2018-07-03T23:09:54.761Z,24.29
2018-07-03T23:12:24.961Z,24.30
2018-07-03T23:14:54.877Z,24.35
2018-07-03T23:17:24.759Z,24.46
2018-07-03T23:19:54.717Z,24.36
2018-07-03T23:22:24.570Z,24.32
2018-07-03T23:24:54.917Z,24.44
2018-07-03T23:27:24.869Z,24.45
2018-07-03T23:29:55.148Z,24.72
2018-07-03T23:32:25.341Z,24.78
2018-07-03T23:34:55.684Z,24.50
2018-07-03T23:37:26.280Z,24.65
2018-07-03T23:39:56.595Z,24.25
2018-07-03T23:42:26.848Z,24.21
2018-07-03T23:44:57.122Z,24.35
2018-07-03T23:47:37.959Z,24.48
2018-07-03T23:50:24.531Z,24.31
2018-07-03T23:53:11.099Z,24.25
2018-07-03T23:55:57.716Z,24.19
2018-07-03T23:58:44.277Z,24.16
